Time;durP1;ratioP1;P1;durP2;ratioP2;P2;SDS_P1;SDS_P2;PMS_P1;PMS_P2;Temp;Humidity;BMP_temperature;BMP_pressure;BME280_temperature;BME280_humidity;BME280_pressure;Samples;Min_cycle;Max_cycle;Signal;HPM_P1;HPM_P2
2021/09/22 00:01:40;;;;;;;0.20;0.10;;;20.20;99.90;;;;;;21022641;22;20625;-69
2021/09/22 00:11:45;;;;;;;0.30;0.20;;;20.30;99.90;;;;;;21074326;28;20235;-72
2021/09/22 00:21:49;;;;;;;0.30;0.20;;;20.40;99.90;;;;;;21073839;28;20643;-70
2021/09/22 00:31:54;;;;;;;1.33;0.40;;;20.70;99.90;;;;;;21073476;28;20192;-70
2021/09/22 00:41:58;;;;;;;0.47;0.13;;;20.60;99.90;;;;;;21072718;28;20561;-71
2021/09/22 00:52:03;;;;;;;0.20;0.20;;;20.80;99.90;;;;;;21071647;28;20279;-71
2021/09/22 01:02:07;;;;;;;0.20;0.10;;;20.80;99.90;;;;;;21058014;22;20236;-69
2021/09/22 01:12:13;;;;;;;0.20;0.20;;;20.70;99.90;;;;;;20987159;28;20829;-68
2021/09/22 01:22:18;;;;;;;8.70;0.77;;;20.70;99.90;;;;;;20984618;28;20584;-67
2021/09/22 01:32:23;;;;;;;0.47;0.37;;;20.80;99.90;;;;;;20991816;28;20371;-67
2021/09/22 01:42:28;;;;;;;0.30;0.20;;;20.80;99.90;;;;;;20983486;28;20705;-68
2021/09/22 01:52:33;;;;;;;0.20;0.20;;;20.80;99.90;;;;;;20984025;28;20211;-68
2021/09/22 02:02:38;;;;;;;0.23;0.10;;;20.80;99.90;;;;;;21010844;28;20255;-66
2021/09/22 02:12:42;;;;;;;0.77;0.77;;;20.70;99.90;;;;;;21066907;28;20192;-65
2021/09/22 02:22:47;;;;;;;0.40;0.20;;;20.60;99.90;;;;;;21027405;28;20550;-67
2021/09/22 02:32:51;;;;;;;0.20;0.10;;;20.70;99.90;;;;;;20982776;28;20201;-66
2021/09/22 02:42:56;;;;;;;0.30;0.30;;;20.60;99.90;;;;;;20981787;28;20225;-68
2021/09/22 02:52:59;;;;;;;0.20;0.20;;;20.60;99.90;;;;;;20981235;28;20245;-68
2021/09/22 03:03:05;;;;;;;0.30;0.30;;;20.50;99.90;;;;;;20980818;28;20319;-65
2021/09/22 03:13:14;;;;;;;0.97;0.40;;;20.50;99.90;;;;;;20998448;28;20193;-67
2021/09/22 03:23:19;;;;;;;3.40;0.63;;;20.40;99.90;;;;;;20996036;28;20619;-67
2021/09/22 03:33:23;;;;;;;1.23;0.20;;;20.60;99.90;;;;;;20994776;28;20622;-67
2021/09/22 03:43:28;;;;;;;0.33;0.30;;;20.40;99.90;;;;;;20992516;28;20228;-68
2021/09/22 03:53:32;;;;;;;0.23;0.23;;;20.40;99.90;;;;;;20992160;28;20224;-68
2021/09/22 04:03:37;;;;;;;0.20;0.10;;;20.40;99.90;;;;;;21027765;28;20592;-68
2021/09/22 04:13:41;;;;;;;0.20;0.20;;;20.40;99.90;;;;;;21074766;28;20578;-66
2021/09/22 04:23:46;;;;;;;0.20;0.17;;;20.60;99.90;;;;;;21073152;28;20234;-68
2021/09/22 04:33:50;;;;;;;0.70;0.50;;;20.50;99.90;;;;;;21073413;28;20192;-67
2021/09/22 04:43:55;;;;;;;2.30;0.40;;;20.60;99.90;;;;;;21081047;28;20239;-68
2021/09/22 04:53:59;;;;;;;0.30;0.30;;;20.70;99.90;;;;;;21071647;28;20545;-69
2021/09/22 05:04:04;;;;;;;0.97;0.30;;;20.60;99.90;;;;;;21030516;28;20232;-67
2021/09/22 05:14:08;;;;;;;0.40;0.40;;;20.50;99.90;;;;;;20985014;28;20204;-67
2021/09/22 05:24:13;;;;;;;0.37;0.37;;;20.40;99.90;;;;;;20985156;28;20221;-66
2021/09/22 05:34:17;;;;;;;0.83;0.43;;;20.40;99.90;;;;;;20983775;28;20211;-67
2021/09/22 05:44:22;;;;;;;0.87;0.50;;;20.30;99.90;;;;;;20982590;28;20654;-68
2021/09/22 05:54:26;;;;;;;1.40;0.50;;;20.30;99.90;;;;;;20980625;28;20213;-67
2021/09/22 06:04:31;;;;;;;0.20;0.20;;;20.30;99.90;;;;;;21019673;28;20534;-68
2021/09/22 06:14:35;;;;;;;0.40;0.30;;;20.50;99.90;;;;;;21061241;28;20237;-67
2021/09/22 06:24:40;;;;;;;0.43;0.27;;;20.40;99.90;;;;;;21009691;28;20315;-69
2021/09/22 06:34:44;;;;;;;0.73;0.63;;;20.60;99.90;;;;;;20961842;28;20284;-66
2021/09/22 06:44:49;;;;;;;0.60;0.60;;;20.70;99.90;;;;;;20980545;28;20558;-68
2021/09/22 06:54:53;;;;;;;0.90;0.20;;;20.90;99.90;;;;;;20973747;28;20261;-67
2021/09/22 07:04:58;;;;;;;0.30;0.20;;;20.90;99.90;;;;;;20975534;28;20232;-68
2021/09/22 07:15:02;;;;;;;2.50;0.57;;;20.90;99.90;;;;;;20993701;28;20200;-66
2021/09/22 07:25:09;;;;;;;0.53;0.53;;;21.30;99.90;;;;;;20992906;28;20227;-68
2021/09/22 07:35:13;;;;;;;0.53;0.33;;;21.10;99.90;;;;;;20993436;28;20563;-68
2021/09/22 07:45:18;;;;;;;0.40;0.40;;;21.00;99.90;;;;;;20991609;28;20255;-67
2021/09/22 07:55:22;;;;;;;0.20;0.20;;;21.10;99.90;;;;;;20990449;28;20280;-68
2021/09/22 08:05:27;;;;;;;1.43;0.40;;;21.20;99.90;;;;;;20994371;28;20311;-68
2021/09/22 08:15:31;;;;;;;0.57;0.40;;;21.50;99.90;;;;;;20988196;28;20217;-68
2021/09/22 08:25:36;;;;;;;1.13;0.63;;;21.70;99.90;;;;;;20988508;28;20232;-68
2021/09/22 08:35:40;;;;;;;0.28;0.28;;;22.40;99.90;;;;;;20988578;28;20536;-69
2021/09/22 08:45:45;;;;;;;0.30;0.17;;;23.00;99.90;;;;;;20987274;28;20267;-68
2021/09/22 08:55:49;;;;;;;1.38;0.90;;;23.30;99.90;;;;;;20984665;28;20200;-68
2021/09/22 09:05:54;;;;;;;3.08;0.75;;;23.30;99.90;;;;;;21037806;28;20231;-69
2021/09/22 09:15:59;;;;;;;0.70;0.40;;;23.70;99.90;;;;;;21066591;28;20188;-68
2021/09/22 09:26:05;;;;;;;0.70;0.70;;;24.10;99.90;;;;;;21066462;28;20252;-68
2021/09/22 09:36:27;;;;;;;0.55;0.30;;;24.80;99.90;;;;;;21066665;28;20220;-67
2021/09/22 09:46:32;;;;;;;0.20;0.20;;;24.20;99.90;;;;;;21047661;28;20280;-67
2021/09/22 09:56:36;;;;;;;0.20;0.20;;;24.00;99.90;;;;;;21066094;28;20196;-67
2021/09/22 10:06:43;;;;;;;0.28;0.28;;;24.30;99.90;;;;;;21004251;28;20749;-68
2021/09/22 10:16:50;;;;;;;0.32;0.22;;;24.70;99.90;;;;;;20980995;28;20299;-67
2021/09/22 10:26:56;;;;;;;1.17;0.28;;;24.80;99.90;;;;;;20988741;28;20200;-68
2021/09/22 10:37:02;;;;;;;2.20;0.95;;;25.00;99.90;;;;;;20997973;28;20240;-67
2021/09/22 10:47:30;;;;;;;0.52;0.40;;;25.70;99.90;;;;;;20996936;28;20372;-68
2021/09/22 10:57:34;;;;;;;0.90;0.88;;;25.60;99.90;;;;;;20996611;28;20634;-68
2021/09/22 11:08:03;;;;;;;1.17;1.08;;;25.20;99.90;;;;;;21065120;28;20228;-68
2021/09/22 11:18:07;;;;;;;10.13;0.82;;;25.20;99.90;;;;;;21083664;28;20314;-67
2021/09/22 11:28:15;;;;;;;0.30;0.30;;;24.60;99.90;;;;;;20974773;28;20341;-66
2021/09/22 11:38:19;;;;;;;0.68;0.50;;;24.50;99.90;;;;;;20992447;28;20622;-68
2021/09/22 11:48:29;;;;;;;1.30;0.80;;;26.60;99.90;;;;;;20974681;28;20291;-67
2021/09/22 11:58:35;;;;;;;9.95;0.88;;;27.50;99.90;;;;;;20990786;28;20231;-68
2021/09/22 12:08:43;;;;;;;1.45;0.98;;;27.50;99.90;;;;;;20913439;28;20260;-68
2021/09/22 12:18:52;;;;;;;1.48;0.98;;;28.50;99.90;;;;;;20910805;28;20227;-66
2021/09/22 12:29:09;;;;;;;1.25;0.60;;;28.70;99.90;;;;;;20987076;28;20276;-68
2021/09/22 12:39:16;;;;;;;0.63;0.55;;;28.20;99.90;;;;;;20980167;28;20231;-67
2021/09/22 12:49:24;;;;;;;0.82;0.73;;;26.60;99.90;;;;;;20985782;28;20204;-68
2021/09/22 12:59:29;;;;;;;3.15;0.85;;;28.10;99.90;;;;;;20985461;28;20562;-68
2021/09/22 13:09:36;;;;;;;1.15;0.57;;;26.90;99.90;;;;;;21069562;28;20287;-69
2021/09/22 13:19:41;;;;;;;1.73;1.17;;;26.30;99.90;;;;;;21056296;28;20315;-68
2021/09/22 13:29:46;;;;;;;0.80;0.80;;;25.60;99.90;;;;;;20984897;28;20254;-64
2021/09/22 13:39:49;;;;;;;1.35;0.60;;;27.90;99.90;;;;;;20983636;28;20308;-67
2021/09/22 13:49:54;;;;;;;3.50;1.02;;;29.90;99.90;;;;;;20982756;28;20197;-67
2021/09/22 13:59:58;;;;;;;0.88;0.75;;;27.90;99.90;;;;;;20982290;28;20221;-68
2021/09/22 14:10:03;;;;;;;1.25;0.50;;;27.10;99.90;;;;;;20981072;28;20277;-69
2021/09/22 14:20:08;;;;;;;4.40;0.70;;;26.90;99.90;;;;;;20981907;28;20624;-68
2021/09/22 14:30:15;;;;;;;0.80;0.43;;;29.10;99.90;;;;;;20986807;28;20287;-67
2021/09/22 14:40:20;;;;;;;2.13;0.57;;;27.00;99.90;;;;;;20981735;28;20670;-68
2021/09/22 14:50:28;;;;;;;2.35;0.90;;;27.70;99.90;;;;;;20978606;28;20788;-68
2021/09/22 15:00:32;;;;;;;1.27;0.80;;;26.30;99.90;;;;;;20989394;28;20228;-68
2021/09/22 15:10:38;;;;;;;1.50;0.55;;;25.70;99.90;;;;;;21066996;28;20261;-67
2021/09/22 15:20:42;;;;;;;0.30;0.30;;;27.00;99.90;;;;;;21077639;28;20297;-68
2021/09/22 15:30:47;;;;;;;2.08;0.73;;;25.40;99.90;;;;;;21076515;28;20212;-67
2021/09/22 15:40:51;;;;;;;1.10;0.90;;;25.00;99.90;;;;;;21076248;28;20249;-67
2021/09/22 15:50:58;;;;;;;1.08;0.90;;;24.40;99.90;;;;;;21056982;28;20188;-68
2021/09/22 16:01:02;;;;;;;8.60;0.93;;;24.50;99.90;;;;;;21060475;28;20319;-68
2021/09/22 16:11:08;;;;;;;1.13;1.02;;;24.30;99.90;;;;;;20990001;28;20201;-68
2021/09/22 16:21:12;;;;;;;1.65;0.93;;;24.20;99.90;;;;;;20988661;28;20235;-68
2021/09/22 16:31:18;;;;;;;0.60;0.47;;;23.90;99.90;;;;;;20989848;28;20205;-68
2021/09/22 16:41:22;;;;;;;0.57;0.40;;;23.90;99.90;;;;;;20988623;28;20665;-68
2021/09/22 16:51:27;;;;;;;0.45;0.45;;;23.80;99.90;;;;;;20987639;28;20681;-69
2021/09/22 17:01:31;;;;;;;1.48;0.40;;;23.90;99.90;;;;;;21002435;28;20277;-67
2021/09/22 17:11:37;;;;;;;0.25;0.25;;;23.70;99.90;;;;;;21069323;28;20202;-69
2021/09/22 17:21:42;;;;;;;1.67;0.82;;;23.70;99.90;;;;;;21020594;28;20567;-69
2021/09/22 17:31:48;;;;;;;0.38;0.38;;;23.60;99.90;;;;;;20983370;28;20650;-70
2021/09/22 17:41:51;;;;;;;1.27;0.75;;;23.60;99.90;;;;;;20984318;28;20233;-69
2021/09/22 17:51:56;;;;;;;0.30;0.30;;;23.30;99.90;;;;;;20984550;28;20200;-71
2021/09/22 18:02:02;;;;;;;3.47;0.85;;;23.30;99.90;;;;;;20965029;28;20319;-69
2021/09/22 18:12:08;;;;;;;1.50;1.27;;;23.00;99.90;;;;;;20991589;28;20185;-70
2021/09/22 18:22:16;;;;;;;1.07;0.63;;;22.80;99.90;;;;;;20984539;28;20635;-69
2021/09/22 18:32:22;;;;;;;0.25;0.15;;;22.80;99.90;;;;;;20982248;28;20723;-70
2021/09/22 18:42:27;;;;;;;1.05;0.65;;;22.70;99.90;;;;;;20982241;28;20270;-69
2021/09/22 18:52:32;;;;;;;0.73;0.50;;;22.50;99.90;;;;;;20997353;28;20200;-70
2021/09/22 19:02:36;;;;;;;2.00;0.63;;;22.30;99.90;;;;;;20996464;28;20316;-69
2021/09/22 19:12:42;;;;;;;0.60;0.50;;;21.70;99.90;;;;;;20995669;28;20246;-69
2021/09/22 19:22:45;;;;;;;2.00;1.03;;;21.20;99.90;;;;;;20993871;28;20231;-68
2021/09/22 19:32:52;;;;;;;0.70;0.30;;;20.70;99.90;;;;;;20994176;28;20557;-69
2021/09/22 19:42:55;;;;;;;2.87;0.87;;;20.40;99.90;;;;;;20995732;28;20307;-69
2021/09/22 19:53:00;;;;;;;0.57;0.57;;;20.10;99.90;;;;;;20997826;28;20204;-68
2021/09/22 20:03:04;;;;;;;0.97;0.60;;;20.10;99.90;;;;;;21057146;28;20224;-69
2021/09/22 20:13:10;;;;;;;0.73;0.43;;;19.90;99.90;;;;;;21104156;28;20291;-69
2021/09/22 20:23:17;;;;;;;1.20;0.30;;;20.60;99.90;;;;;;21074667;28;20565;-71
2021/09/22 20:33:22;;;;;;;0.20;0.10;;;21.70;99.90;;;;;;21073403;28;20313;-68
2021/09/22 20:43:26;;;;;;;0.60;0.60;;;22.00;99.90;;;;;;21072245;28;21105;-70
2021/09/22 20:53:31;;;;;;;0.87;0.87;;;22.10;99.90;;;;;;21071177;28;20275;-69
2021/09/22 21:03:35;;;;;;;0.90;0.70;;;21.70;99.90;;;;;;21035509;28;20250;-69
2021/09/22 21:13:40;;;;;;;0.50;0.37;;;21.60;99.90;;;;;;20985674;28;20230;-69
2021/09/22 21:23:44;;;;;;;0.30;0.13;;;21.30;99.90;;;;;;20985285;28;20244;-69
2021/09/22 21:33:49;;;;;;;0.97;0.67;;;20.80;99.90;;;;;;20984922;28;20220;-70
2021/09/22 21:43:53;;;;;;;0.20;0.10;;;20.40;99.90;;;;;;20993356;28;20631;-69
2021/09/22 21:53:58;;;;;;;0.50;0.50;;;19.80;99.90;;;;;;20988250;28;20272;-68
2021/09/22 22:04:02;;;;;;;0.27;0.23;;;19.70;99.90;;;;;;21022433;28;20657;-68
2021/09/22 22:14:07;;;;;;;0.30;0.20;;;19.60;99.90;;;;;;21066115;28;20204;-68
2021/09/22 22:24:11;;;;;;;0.37;0.37;;;19.10;99.90;;;;;;21014368;28;20216;-67
2021/09/22 22:34:16;;;;;;;0.60;0.30;;;18.90;99.90;;;;;;20963574;28;20487;-67
2021/09/22 22:44:20;;;;;;;0.20;0.20;;;18.70;99.90;;;;;;20947431;28;20228;-67
2021/09/22 22:54:26;;;;;;;0.30;0.30;;;18.80;99.90;;;;;;20981127;28;20189;-66
2021/09/22 23:04:29;;;;;;;0.50;0.30;;;18.50;99.90;;;;;;20980876;28;20286;-67
2021/09/22 23:14:34;;;;;;;0.20;0.17;;;18.50;99.90;;;;;;20980693;28;20666;-67
2021/09/22 23:24:38;;;;;;;0.37;0.33;;;18.60;99.90;;;;;;20980263;28;20234;-68
2021/09/22 23:34:43;;;;;;;0.20;0.20;;;18.70;99.90;;;;;;20988800;28;20677;-67
2021/09/22 23:44:47;;;;;;;0.70;0.40;;;18.80;99.90;;;;;;20994180;28;20239;-67
2021/09/22 23:54:52;;;;;;;0.20;0.10;;;18.80;99.90;;;;;;20993718;28;20197;-67
